sensor_id;sensor_type;location;lat;lon;timestamp;temperature;humidity
16513;DHT22;8369;48.030;11.598;2023-05-23T00:00:59;17.40;99.90
16513;DHT22;8369;48.030;11.598;2023-05-23T00:03:26;17.40;99.90
16513;DHT22;8369;48.030;11.598;2023-05-23T00:05:53;17.40;99.90
16513;DHT22;8369;48.030;11.598;2023-05-23T00:08:21;17.50;99.90
16513;DHT22;8369;48.030;11.598;2023-05-23T00:10:47;17.50;99.90
16513;DHT22;8369;48.030;11.598;2023-05-23T00:13:13;17.40;99.90
16513;DHT22;8369;48.030;11.598;2023-05-23T00:15:40;17.40;99.90
16513;DHT22;8369;48.030;11.598;2023-05-23T00:18:07;17.40;99.90
16513;DHT22;8369;48.030;11.598;2023-05-23T00:20:36;17.40;99.90
16513;DHT22;8369;48.030;11.598;2023-05-23T00:23:06;17.40;99.90
16513;DHT22;8369;48.030;11.598;2023-05-23T00:25:33;17.40;99.90
16513;DHT22;8369;48.030;11.598;2023-05-23T00:28:00;17.30;99.90
16513;DHT22;8369;48.030;11.598;2023-05-23T00:30:28;17.40;99.90
16513;DHT22;8369;48.030;11.598;2023-05-23T00:32:54;17.30;99.90
16513;DHT22;8369;48.030;11.598;2023-05-23T00:35:21;17.30;99.90
16513;DHT22;8369;48.030;11.598;2023-05-23T00:37:51;17.40;99.90
16513;DHT22;8369;48.030;11.598;2023-05-23T00:40:17;17.40;99.90
16513;DHT22;8369;48.030;11.598;2023-05-23T00:42:43;17.40;99.90
16513;DHT22;8369;48.030;11.598;2023-05-23T00:45:10;17.40;99.90
16513;DHT22;8369;48.030;11.598;2023-05-23T00:47:40;17.40;99.90
16513;DHT22;8369;48.030;11.598;2023-05-23T00:50:07;17.40;99.90
16513;DHT22;8369;48.030;11.598;2023-05-23T00:52:35;17.40;99.90
16513;DHT22;8369;48.030;11.598;2023-05-23T00:55:01;17.40;99.90
16513;DHT22;8369;48.030;11.598;2023-05-23T00:57:27;17.40;99.90
16513;DHT22;8369;48.030;11.598;2023-05-23T00:59:53;17.40;99.90
16513;DHT22;8369;48.030;11.598;2023-05-23T01:02:19;17.40;99.90
16513;DHT22;8369;48.030;11.598;2023-05-23T01:04:48;17.40;99.90
16513;DHT22;8369;48.030;11.598;2023-05-23T01:07:19;17.40;99.90
16513;DHT22;8369;48.030;11.598;2023-05-23T01:09:46;17.40;99.90
16513;DHT22;8369;48.030;11.598;2023-05-23T01:12:42;17.40;99.90
16513;DHT22;8369;48.030;11.598;2023-05-23T01:15:16;17.40;99.90
16513;DHT22;8369;48.030;11.598;2023-05-23T01:18:01;17.40;99.90
16513;DHT22;8369;48.030;11.598;2023-05-23T01:20:39;17.40;99.90
16513;DHT22;8369;48.030;11.598;2023-05-23T01:23:12;17.40;99.90
16513;DHT22;8369;48.030;11.598;2023-05-23T01:28:38;17.40;99.90
16513;DHT22;8369;48.030;11.598;2023-05-23T01:31:07;17.40;99.90
16513;DHT22;8369;48.030;11.598;2023-05-23T01:33:35;17.40;99.90
16513;DHT22;8369;48.030;11.598;2023-05-23T01:36:02;17.40;99.90
16513;DHT22;8369;48.030;11.598;2023-05-23T01:38:28;17.30;99.90
16513;DHT22;8369;48.030;11.598;2023-05-23T01:40:55;17.30;99.90
16513;DHT22;8369;48.030;11.598;2023-05-23T01:43:22;17.40;99.90
16513;DHT22;8369;48.030;11.598;2023-05-23T01:45:50;17.40;99.90
16513;DHT22;8369;48.030;11.598;2023-05-23T01:48:17;17.40;99.90
16513;DHT22;8369;48.030;11.598;2023-05-23T01:50:43;17.40;99.90
16513;DHT22;8369;48.030;11.598;2023-05-23T01:53:14;17.40;99.90
16513;DHT22;8369;48.030;11.598;2023-05-23T01:55:41;17.40;99.90
16513;DHT22;8369;48.030;11.598;2023-05-23T01:58:08;17.40;99.90
16513;DHT22;8369;48.030;11.598;2023-05-23T02:00:33;17.40;99.90
16513;DHT22;8369;48.030;11.598;2023-05-23T02:03:00;17.40;99.90
16513;DHT22;8369;48.030;11.598;2023-05-23T02:05:26;17.40;99.90
16513;DHT22;8369;48.030;11.598;2023-05-23T02:07:52;17.40;99.90
16513;DHT22;8369;48.030;11.598;2023-05-23T02:10:18;17.40;99.90
16513;DHT22;8369;48.030;11.598;2023-05-23T02:12:44;17.40;99.90
16513;DHT22;8369;48.030;11.598;2023-05-23T02:15:10;17.40;99.90
16513;DHT22;8369;48.030;11.598;2023-05-23T02:17:36;17.50;99.90
16513;DHT22;8369;48.030;11.598;2023-05-23T02:20:05;17.50;99.90
16513;DHT22;8369;48.030;11.598;2023-05-23T02:22:31;17.40;99.90
16513;DHT22;8369;48.030;11.598;2023-05-23T02:24:57;17.40;99.90
16513;DHT22;8369;48.030;11.598;2023-05-23T02:27:32;17.40;99.90
16513;DHT22;8369;48.030;11.598;2023-05-23T02:29:57;17.40;99.90
16513;DHT22;8369;48.030;11.598;2023-05-23T02:32:23;17.40;99.90
16513;DHT22;8369;48.030;11.598;2023-05-23T02:34:50;17.40;99.90
16513;DHT22;8369;48.030;11.598;2023-05-23T02:37:16;17.40;99.90
16513;DHT22;8369;48.030;11.598;2023-05-23T02:39:42;17.30;99.90
16513;DHT22;8369;48.030;11.598;2023-05-23T02:42:09;17.30;99.90
16513;DHT22;8369;48.030;11.598;2023-05-23T02:44:34;17.30;99.90
16513;DHT22;8369;48.030;11.598;2023-05-23T02:47:00;17.30;99.90
16513;DHT22;8369;48.030;11.598;2023-05-23T02:49:26;17.30;99.90
16513;DHT22;8369;48.030;11.598;2023-05-23T02:51:52;17.30;99.90
16513;DHT22;8369;48.030;11.598;2023-05-23T02:54:18;17.20;99.90
16513;DHT22;8369;48.030;11.598;2023-05-23T02:56:45;17.20;99.90
16513;DHT22;8369;48.030;11.598;2023-05-23T02:59:11;17.10;99.90
16513;DHT22;8369;48.030;11.598;2023-05-23T03:01:37;17.10;99.90
16513;DHT22;8369;48.030;11.598;2023-05-23T03:04:03;17.10;99.90
16513;DHT22;8369;48.030;11.598;2023-05-23T03:06:29;17.00;99.90
16513;DHT22;8369;48.030;11.598;2023-05-23T03:08:57;17.00;99.90
16513;DHT22;8369;48.030;11.598;2023-05-23T03:11:23;17.00;99.90
16513;DHT22;8369;48.030;11.598;2023-05-23T03:13:48;17.00;99.90
16513;DHT22;8369;48.030;11.598;2023-05-23T03:16:14;17.00;99.90
16513;DHT22;8369;48.030;11.598;2023-05-23T03:18:40;17.00;99.90
16513;DHT22;8369;48.030;11.598;2023-05-23T03:21:06;17.00;99.90
16513;DHT22;8369;48.030;11.598;2023-05-23T03:23:34;17.00;99.90
16513;DHT22;8369;48.030;11.598;2023-05-23T03:26:01;17.00;99.90
16513;DHT22;8369;48.030;11.598;2023-05-23T03:28:30;16.90;99.90
16513;DHT22;8369;48.030;11.598;2023-05-23T03:30:57;16.90;99.90
16513;DHT22;8369;48.030;11.598;2023-05-23T03:33:23;16.90;99.90
16513;DHT22;8369;48.030;11.598;2023-05-23T03:35:49;16.90;99.90
16513;DHT22;8369;48.030;11.598;2023-05-23T03:38:16;16.90;99.90
16513;DHT22;8369;48.030;11.598;2023-05-23T03:40:42;16.90;99.90
16513;DHT22;8369;48.030;11.598;2023-05-23T03:43:08;16.90;99.90
16513;DHT22;8369;48.030;11.598;2023-05-23T03:45:34;16.90;99.90
16513;DHT22;8369;48.030;11.598;2023-05-23T03:48:00;16.90;99.90
16513;DHT22;8369;48.030;11.598;2023-05-23T03:50:26;16.90;99.90
16513;DHT22;8369;48.030;11.598;2023-05-23T03:52:53;16.80;99.90
16513;DHT22;8369;48.030;11.598;2023-05-23T03:55:20;16.90;99.90
16513;DHT22;8369;48.030;11.598;2023-05-23T03:57:53;16.90;99.90
16513;DHT22;8369;48.030;11.598;2023-05-23T04:00:19;16.90;99.90
16513;DHT22;8369;48.030;11.598;2023-05-23T04:02:45;16.90;99.90
16513;DHT22;8369;48.030;11.598;2023-05-23T04:05:12;16.90;99.90
16513;DHT22;8369;48.030;11.598;2023-05-23T04:07:38;16.90;99.90
16513;DHT22;8369;48.030;11.598;2023-05-23T04:10:05;16.90;99.90
16513;DHT22;8369;48.030;11.598;2023-05-23T04:12:31;16.90;99.90
16513;DHT22;8369;48.030;11.598;2023-05-23T04:14:56;16.90;99.90
16513;DHT22;8369;48.030;11.598;2023-05-23T04:17:23;17.00;99.90
16513;DHT22;8369;48.030;11.598;2023-05-23T04:19:50;17.00;99.90
16513;DHT22;8369;48.030;11.598;2023-05-23T04:22:16;17.00;99.90
16513;DHT22;8369;48.030;11.598;2023-05-23T04:24:42;17.00;99.90
16513;DHT22;8369;48.030;11.598;2023-05-23T04:27:08;17.00;99.90
16513;DHT22;8369;48.030;11.598;2023-05-23T04:29:34;17.00;99.90
16513;DHT22;8369;48.030;11.598;2023-05-23T04:32:01;17.00;99.90
16513;DHT22;8369;48.030;11.598;2023-05-23T04:34:27;17.10;99.90
16513;DHT22;8369;48.030;11.598;2023-05-23T04:36:53;17.10;99.90
16513;DHT22;8369;48.030;11.598;2023-05-23T04:39:19;17.10;99.90
16513;DHT22;8369;48.030;11.598;2023-05-23T04:41:45;17.20;99.90
16513;DHT22;8369;48.030;11.598;2023-05-23T04:44:11;17.20;99.90
16513;DHT22;8369;48.030;11.598;2023-05-23T04:46:39;17.20;99.90
16513;DHT22;8369;48.030;11.598;2023-05-23T04:49:07;17.20;99.90
16513;DHT22;8369;48.030;11.598;2023-05-23T04:51:33;17.20;99.90
16513;DHT22;8369;48.030;11.598;2023-05-23T04:54:00;17.20;99.90
16513;DHT22;8369;48.030;11.598;2023-05-23T04:56:26;17.20;99.90
16513;DHT22;8369;48.030;11.598;2023-05-23T04:58:54;17.20;99.90
16513;DHT22;8369;48.030;11.598;2023-05-23T05:01:20;17.30;99.90
16513;DHT22;8369;48.030;11.598;2023-05-23T05:03:49;17.30;99.90
16513;DHT22;8369;48.030;11.598;2023-05-23T05:06:15;17.30;99.90
16513;DHT22;8369;48.030;11.598;2023-05-23T05:08:42;17.30;99.90
16513;DHT22;8369;48.030;11.598;2023-05-23T05:11:08;17.30;99.90
16513;DHT22;8369;48.030;11.598;2023-05-23T05:13:35;17.30;99.90
16513;DHT22;8369;48.030;11.598;2023-05-23T05:16:01;17.40;99.90
16513;DHT22;8369;48.030;11.598;2023-05-23T05:18:27;17.40;99.90
16513;DHT22;8369;48.030;11.598;2023-05-23T05:20:54;17.40;99.90
16513;DHT22;8369;48.030;11.598;2023-05-23T05:23:24;17.40;99.90
16513;DHT22;8369;48.030;11.598;2023-05-23T05:25:50;17.50;99.90
16513;DHT22;8369;48.030;11.598;2023-05-23T05:28:16;17.50;99.90
16513;DHT22;8369;48.030;11.598;2023-05-23T05:30:42;17.50;99.90
16513;DHT22;8369;48.030;11.598;2023-05-23T05:33:10;17.50;99.90
16513;DHT22;8369;48.030;11.598;2023-05-23T05:35:36;17.60;99.90
16513;DHT22;8369;48.030;11.598;2023-05-23T05:38:05;17.60;99.90
16513;DHT22;8369;48.030;11.598;2023-05-23T05:40:33;17.60;99.90
16513;DHT22;8369;48.030;11.598;2023-05-23T05:42:59;17.70;99.90
16513;DHT22;8369;48.030;11.598;2023-05-23T05:45:25;17.70;99.90
16513;DHT22;8369;48.030;11.598;2023-05-23T05:47:51;17.70;99.90
16513;DHT22;8369;48.030;11.598;2023-05-23T05:50:17;17.80;99.90
16513;DHT22;8369;48.030;11.598;2023-05-23T05:52:45;17.80;99.90
16513;DHT22;8369;48.030;11.598;2023-05-23T05:55:20;17.80;99.90
16513;DHT22;8369;48.030;11.598;2023-05-23T05:57:46;17.80;99.90
16513;DHT22;8369;48.030;11.598;2023-05-23T06:00:13;17.90;99.90
16513;DHT22;8369;48.030;11.598;2023-05-23T06:02:41;17.90;99.90
16513;DHT22;8369;48.030;11.598;2023-05-23T06:05:09;17.90;99.90
16513;DHT22;8369;48.030;11.598;2023-05-23T06:07:37;18.00;99.90
16513;DHT22;8369;48.030;11.598;2023-05-23T06:10:04;18.00;99.90
16513;DHT22;8369;48.030;11.598;2023-05-23T06:12:34;18.10;99.90
16513;DHT22;8369;48.030;11.598;2023-05-23T06:15:02;18.20;99.90
16513;DHT22;8369;48.030;11.598;2023-05-23T06:17:28;18.30;99.90
16513;DHT22;8369;48.030;11.598;2023-05-23T06:19:54;18.40;99.90
16513;DHT22;8369;48.030;11.598;2023-05-23T06:22:20;18.40;99.90
16513;DHT22;8369;48.030;11.598;2023-05-23T06:24:47;18.40;99.90
16513;DHT22;8369;48.030;11.598;2023-05-23T06:27:13;18.40;99.90
16513;DHT22;8369;48.030;11.598;2023-05-23T06:29:39;18.40;99.90
16513;DHT22;8369;48.030;11.598;2023-05-23T06:32:05;18.40;99.90
16513;DHT22;8369;48.030;11.598;2023-05-23T06:34:31;18.50;99.90
16513;DHT22;8369;48.030;11.598;2023-05-23T06:36:57;18.60;99.90
16513;DHT22;8369;48.030;11.598;2023-05-23T06:39:23;18.70;99.90
16513;DHT22;8369;48.030;11.598;2023-05-23T06:41:49;18.80;99.90
16513;DHT22;8369;48.030;11.598;2023-05-23T06:44:16;18.90;99.90
16513;DHT22;8369;48.030;11.598;2023-05-23T06:46:44;19.00;99.90
16513;DHT22;8369;48.030;11.598;2023-05-23T06:49:11;19.10;99.90
16513;DHT22;8369;48.030;11.598;2023-05-23T06:51:37;19.20;99.90
16513;DHT22;8369;48.030;11.598;2023-05-23T06:54:03;19.30;99.90
16513;DHT22;8369;48.030;11.598;2023-05-23T06:56:29;19.40;99.90
16513;DHT22;8369;48.030;11.598;2023-05-23T06:58:55;19.50;99.90
16513;DHT22;8369;48.030;11.598;2023-05-23T07:01:22;19.60;99.90
16513;DHT22;8369;48.030;11.598;2023-05-23T07:03:47;19.70;99.90
16513;DHT22;8369;48.030;11.598;2023-05-23T07:06:13;19.80;99.90
16513;DHT22;8369;48.030;11.598;2023-05-23T07:08:42;19.90;99.90
16513;DHT22;8369;48.030;11.598;2023-05-23T07:11:08;19.90;99.90
16513;DHT22;8369;48.030;11.598;2023-05-23T07:13:34;19.90;99.90
16513;DHT22;8369;48.030;11.598;2023-05-23T07:16:01;20.00;99.90
16513;DHT22;8369;48.030;11.598;2023-05-23T07:18:27;20.10;99.90
16513;DHT22;8369;48.030;11.598;2023-05-23T07:20:53;20.30;99.90
16513;DHT22;8369;48.030;11.598;2023-05-23T07:23:21;20.30;99.90
16513;DHT22;8369;48.030;11.598;2023-05-23T07:25:46;20.40;99.90
16513;DHT22;8369;48.030;11.598;2023-05-23T07:28:12;20.50;99.90
16513;DHT22;8369;48.030;11.598;2023-05-23T07:30:38;20.60;99.90
16513;DHT22;8369;48.030;11.598;2023-05-23T07:33:05;20.70;99.90
16513;DHT22;8369;48.030;11.598;2023-05-23T07:35:31;20.70;99.90
16513;DHT22;8369;48.030;11.598;2023-05-23T07:37:58;20.60;99.90
16513;DHT22;8369;48.030;11.598;2023-05-23T07:40:24;20.60;99.90
16513;DHT22;8369;48.030;11.598;2023-05-23T07:42:50;20.50;99.90
16513;DHT22;8369;48.030;11.598;2023-05-23T07:45:18;20.30;99.90
16513;DHT22;8369;48.030;11.598;2023-05-23T07:47:44;20.30;99.90
16513;DHT22;8369;48.030;11.598;2023-05-23T07:50:10;20.30;99.90
16513;DHT22;8369;48.030;11.598;2023-05-23T07:52:36;20.20;99.90
16513;DHT22;8369;48.030;11.598;2023-05-23T07:55:02;20.00;99.90
16513;DHT22;8369;48.030;11.598;2023-05-23T07:57:28;19.90;99.90
16513;DHT22;8369;48.030;11.598;2023-05-23T07:59:55;19.80;99.90
16513;DHT22;8369;48.030;11.598;2023-05-23T08:02:20;19.80;99.90
16513;DHT22;8369;48.030;11.598;2023-05-23T08:04:47;19.80;99.90
16513;DHT22;8369;48.030;11.598;2023-05-23T08:07:13;19.80;99.90
16513;DHT22;8369;48.030;11.598;2023-05-23T08:09:39;19.90;99.90
16513;DHT22;8369;48.030;11.598;2023-05-23T08:12:06;19.90;99.90
16513;DHT22;8369;48.030;11.598;2023-05-23T08:14:32;20.00;99.90
16513;DHT22;8369;48.030;11.598;2023-05-23T08:16:59;20.00;99.90
16513;DHT22;8369;48.030;11.598;2023-05-23T08:19:24;20.00;99.90
16513;DHT22;8369;48.030;11.598;2023-05-23T08:21:50;20.00;99.90
16513;DHT22;8369;48.030;11.598;2023-05-23T08:24:19;20.00;99.90
16513;DHT22;8369;48.030;11.598;2023-05-23T08:26:45;20.00;99.90
16513;DHT22;8369;48.030;11.598;2023-05-23T08:29:11;19.90;99.90
16513;DHT22;8369;48.030;11.598;2023-05-23T08:31:38;19.90;99.90
16513;DHT22;8369;48.030;11.598;2023-05-23T08:34:05;20.00;99.90
16513;DHT22;8369;48.030;11.598;2023-05-23T08:36:33;20.00;99.90
16513;DHT22;8369;48.030;11.598;2023-05-23T08:39:02;20.00;99.90
16513;DHT22;8369;48.030;11.598;2023-05-23T08:41:29;20.10;99.90
16513;DHT22;8369;48.030;11.598;2023-05-23T08:43:59;20.10;99.90
16513;DHT22;8369;48.030;11.598;2023-05-23T08:46:26;20.10;99.90
16513;DHT22;8369;48.030;11.598;2023-05-23T08:48:53;20.20;99.90
16513;DHT22;8369;48.030;11.598;2023-05-23T08:51:26;20.20;99.90
16513;DHT22;8369;48.030;11.598;2023-05-23T08:53:53;20.30;99.90
16513;DHT22;8369;48.030;11.598;2023-05-23T08:56:22;20.40;99.90
16513;DHT22;8369;48.030;11.598;2023-05-23T08:58:49;20.40;99.90
16513;DHT22;8369;48.030;11.598;2023-05-23T09:01:17;20.50;99.90
16513;DHT22;8369;48.030;11.598;2023-05-23T09:03:45;20.50;99.90
16513;DHT22;8369;48.030;11.598;2023-05-23T09:06:12;20.60;99.90
16513;DHT22;8369;48.030;11.598;2023-05-23T09:08:38;20.60;99.90
16513;DHT22;8369;48.030;11.598;2023-05-23T09:11:06;20.60;99.90
16513;DHT22;8369;48.030;11.598;2023-05-23T09:13:33;20.50;99.90
16513;DHT22;8369;48.030;11.598;2023-05-23T09:16:04;20.50;99.90
16513;DHT22;8369;48.030;11.598;2023-05-23T09:18:33;20.50;99.90
16513;DHT22;8369;48.030;11.598;2023-05-23T09:21:04;20.50;99.90
16513;DHT22;8369;48.030;11.598;2023-05-23T09:23:32;20.60;99.90
16513;DHT22;8369;48.030;11.598;2023-05-23T09:26:06;20.60;99.90
16513;DHT22;8369;48.030;11.598;2023-05-23T09:28:36;20.50;99.90
16513;DHT22;8369;48.030;11.598;2023-05-23T09:31:06;20.60;99.90
16513;DHT22;8369;48.030;11.598;2023-05-23T09:33:45;20.60;99.90
16513;DHT22;8369;48.030;11.598;2023-05-23T09:36:14;20.70;99.90
16513;DHT22;8369;48.030;11.598;2023-05-23T09:38:44;20.70;99.90
16513;DHT22;8369;48.030;11.598;2023-05-23T09:41:11;20.80;99.90
16513;DHT22;8369;48.030;11.598;2023-05-23T09:43:38;20.80;99.90
16513;DHT22;8369;48.030;11.598;2023-05-23T09:46:11;20.90;99.90
16513;DHT22;8369;48.030;11.598;2023-05-23T09:48:37;21.00;99.90
16513;DHT22;8369;48.030;11.598;2023-05-23T09:51:12;21.20;99.90
16513;DHT22;8369;48.030;11.598;2023-05-23T09:53:38;21.30;99.90
16513;DHT22;8369;48.030;11.598;2023-05-23T09:56:05;21.40;99.90
16513;DHT22;8369;48.030;11.598;2023-05-23T09:58:32;21.40;99.90
16513;DHT22;8369;48.030;11.598;2023-05-23T10:01:00;21.60;99.90
16513;DHT22;8369;48.030;11.598;2023-05-23T10:03:36;21.80;99.90
16513;DHT22;8369;48.030;11.598;2023-05-23T10:06:21;22.00;99.90
16513;DHT22;8369;48.030;11.598;2023-05-23T10:09:11;22.20;99.90
16513;DHT22;8369;48.030;11.598;2023-05-23T10:12:32;22.40;99.90
16513;DHT22;8369;48.030;11.598;2023-05-23T10:15:03;22.50;99.90
16513;DHT22;8369;48.030;11.598;2023-05-23T10:17:52;22.60;99.90
16513;DHT22;8369;48.030;11.598;2023-05-23T10:20:24;22.60;99.90
16513;DHT22;8369;48.030;11.598;2023-05-23T10:22:51;22.70;99.90
16513;DHT22;8369;48.030;11.598;2023-05-23T10:25:18;22.70;99.90
16513;DHT22;8369;48.030;11.598;2023-05-23T10:27:44;22.50;99.90
16513;DHT22;8369;48.030;11.598;2023-05-23T10:30:10;22.50;99.90
16513;DHT22;8369;48.030;11.598;2023-05-23T10:32:37;22.30;99.90
16513;DHT22;8369;48.030;11.598;2023-05-23T10:38:49;22.10;99.90
16513;DHT22;8369;48.030;11.598;2023-05-23T10:44:16;22.10;99.90
16513;DHT22;8369;48.030;11.598;2023-05-23T10:47:02;22.00;99.90
16513;DHT22;8369;48.030;11.598;2023-05-23T10:49:42;21.80;99.90
16513;DHT22;8369;48.030;11.598;2023-05-23T10:52:10;21.80;99.90
16513;DHT22;8369;48.030;11.598;2023-05-23T10:54:43;21.70;99.90
16513;DHT22;8369;48.030;11.598;2023-05-23T10:57:14;21.60;99.90
16513;DHT22;8369;48.030;11.598;2023-05-23T10:59:41;21.40;99.90
16513;DHT22;8369;48.030;11.598;2023-05-23T11:02:15;21.30;99.90
16513;DHT22;8369;48.030;11.598;2023-05-23T11:04:41;21.30;99.90
16513;DHT22;8369;48.030;11.598;2023-05-23T11:07:29;21.20;99.90
16513;DHT22;8369;48.030;11.598;2023-05-23T11:10:12;21.30;99.90
16513;DHT22;8369;48.030;11.598;2023-05-23T11:12:43;21.40;99.90
16513;DHT22;8369;48.030;11.598;2023-05-23T11:17:53;21.90;99.90
16513;DHT22;8369;48.030;11.598;2023-05-23T11:20:22;22.00;99.90
16513;DHT22;8369;48.030;11.598;2023-05-23T11:22:53;22.10;99.90
16513;DHT22;8369;48.030;11.598;2023-05-23T11:25:39;22.10;99.90
16513;DHT22;8369;48.030;11.598;2023-05-23T11:28:05;22.10;99.90
16513;DHT22;8369;48.030;11.598;2023-05-23T11:30:34;22.10;99.90
16513;DHT22;8369;48.030;11.598;2023-05-23T11:33:14;22.10;99.90
16513;DHT22;8369;48.030;11.598;2023-05-23T11:35:48;22.10;99.90
16513;DHT22;8369;48.030;11.598;2023-05-23T11:38:15;22.10;99.90
16513;DHT22;8369;48.030;11.598;2023-05-23T11:40:44;22.20;99.90
16513;DHT22;8369;48.030;11.598;2023-05-23T11:43:16;22.30;99.90
16513;DHT22;8369;48.030;11.598;2023-05-23T11:45:42;22.50;99.90
16513;DHT22;8369;48.030;11.598;2023-05-23T11:48:15;22.60;99.90
16513;DHT22;8369;48.030;11.598;2023-05-23T11:50:44;22.80;99.90
16513;DHT22;8369;48.030;11.598;2023-05-23T11:53:11;22.80;99.90
16513;DHT22;8369;48.030;11.598;2023-05-23T11:55:39;22.80;99.90
16513;DHT22;8369;48.030;11.598;2023-05-23T11:58:06;22.90;99.90
16513;DHT22;8369;48.030;11.598;2023-05-23T12:00:33;23.00;99.90
16513;DHT22;8369;48.030;11.598;2023-05-23T12:03:05;23.00;99.90
16513;DHT22;8369;48.030;11.598;2023-05-23T12:05:32;23.30;98.10
16513;DHT22;8369;48.030;11.598;2023-05-23T12:07:58;23.20;98.30
16513;DHT22;8369;48.030;11.598;2023-05-23T12:10:26;23.30;98.80
16513;DHT22;8369;48.030;11.598;2023-05-23T12:12:52;23.30;99.30
16513;DHT22;8369;48.030;11.598;2023-05-23T12:15:24;23.40;99.40
16513;DHT22;8369;48.030;11.598;2023-05-23T12:17:53;23.50;98.70
16513;DHT22;8369;48.030;11.598;2023-05-23T12:20:19;23.60;98.90
16513;DHT22;8369;48.030;11.598;2023-05-23T12:22:46;23.70;97.90
16513;DHT22;8369;48.030;11.598;2023-05-23T12:25:12;23.80;98.60
16513;DHT22;8369;48.030;11.598;2023-05-23T12:27:40;23.90;96.90
16513;DHT22;8369;48.030;11.598;2023-05-23T12:30:13;23.90;97.10
16513;DHT22;8369;48.030;11.598;2023-05-23T12:32:43;23.80;96.30
16513;DHT22;8369;48.030;11.598;2023-05-23T12:35:11;23.60;96.00
16513;DHT22;8369;48.030;11.598;2023-05-23T12:37:47;23.70;96.20
16513;DHT22;8369;48.030;11.598;2023-05-23T12:40:15;23.60;95.60
16513;DHT22;8369;48.030;11.598;2023-05-23T12:42:50;23.50;96.10
16513;DHT22;8369;48.030;11.598;2023-05-23T12:45:22;23.50;96.80
16513;DHT22;8369;48.030;11.598;2023-05-23T12:47:50;23.50;97.10
16513;DHT22;8369;48.030;11.598;2023-05-23T12:50:16;23.40;97.10
16513;DHT22;8369;48.030;11.598;2023-05-23T12:52:44;23.30;97.60
16513;DHT22;8369;48.030;11.598;2023-05-23T12:55:11;23.10;97.90
16513;DHT22;8369;48.030;11.598;2023-05-23T12:57:37;23.10;98.90
16513;DHT22;8369;48.030;11.598;2023-05-23T13:00:05;22.90;99.90
16513;DHT22;8369;48.030;11.598;2023-05-23T13:02:32;22.80;99.00
16513;DHT22;8369;48.030;11.598;2023-05-23T13:04:58;22.70;99.50
16513;DHT22;8369;48.030;11.598;2023-05-23T13:07:24;22.60;99.90
16513;DHT22;8369;48.030;11.598;2023-05-23T13:09:50;22.60;99.90
16513;DHT22;8369;48.030;11.598;2023-05-23T13:12:17;22.60;99.90
16513;DHT22;8369;48.030;11.598;2023-05-23T13:14:42;22.70;99.90
16513;DHT22;8369;48.030;11.598;2023-05-23T13:17:09;22.60;99.90
16513;DHT22;8369;48.030;11.598;2023-05-23T13:19:35;22.60;99.90
16513;DHT22;8369;48.030;11.598;2023-05-23T13:22:01;22.50;99.90
16513;DHT22;8369;48.030;11.598;2023-05-23T13:24:29;22.40;99.90
16513;DHT22;8369;48.030;11.598;2023-05-23T13:26:56;22.30;99.90
16513;DHT22;8369;48.030;11.598;2023-05-23T13:29:21;22.20;99.90
16513;DHT22;8369;48.030;11.598;2023-05-23T13:31:51;22.10;99.90
16513;DHT22;8369;48.030;11.598;2023-05-23T13:34:18;21.90;99.90
16513;DHT22;8369;48.030;11.598;2023-05-23T13:36:44;21.60;99.90
16513;DHT22;8369;48.030;11.598;2023-05-23T13:39:10;21.40;99.90
16513;DHT22;8369;48.030;11.598;2023-05-23T13:41:36;21.20;99.90
16513;DHT22;8369;48.030;11.598;2023-05-23T13:44:02;21.00;99.90
16513;DHT22;8369;48.030;11.598;2023-05-23T13:46:28;20.80;99.90
16513;DHT22;8369;48.030;11.598;2023-05-23T13:48:54;20.60;99.90
16513;DHT22;8369;48.030;11.598;2023-05-23T13:51:20;20.40;99.90
16513;DHT22;8369;48.030;11.598;2023-05-23T13:53:46;20.20;99.90
16513;DHT22;8369;48.030;11.598;2023-05-23T13:56:14;20.10;99.90
16513;DHT22;8369;48.030;11.598;2023-05-23T13:58:40;19.80;99.90
16513;DHT22;8369;48.030;11.598;2023-05-23T14:01:07;19.60;99.90
16513;DHT22;8369;48.030;11.598;2023-05-23T14:03:33;19.50;99.90
16513;DHT22;8369;48.030;11.598;2023-05-23T14:05:59;19.30;99.90
16513;DHT22;8369;48.030;11.598;2023-05-23T14:08:25;19.20;99.90
16513;DHT22;8369;48.030;11.598;2023-05-23T14:10:51;19.10;99.90
16513;DHT22;8369;48.030;11.598;2023-05-23T14:13:17;18.90;99.90
16513;DHT22;8369;48.030;11.598;2023-05-23T14:16:05;18.80;99.90
16513;DHT22;8369;48.030;11.598;2023-05-23T14:18:31;18.80;99.90
16513;DHT22;8369;48.030;11.598;2023-05-23T14:20:57;18.70;99.90
16513;DHT22;8369;48.030;11.598;2023-05-23T14:23:23;18.60;99.90
16513;DHT22;8369;48.030;11.598;2023-05-23T14:25:55;18.60;99.90
16513;DHT22;8369;48.030;11.598;2023-05-23T14:28:21;18.60;99.90
16513;DHT22;8369;48.030;11.598;2023-05-23T14:30:47;18.50;99.90
16513;DHT22;8369;48.030;11.598;2023-05-23T14:33:13;18.50;99.90
16513;DHT22;8369;48.030;11.598;2023-05-23T14:35:39;18.40;99.90
16513;DHT22;8369;48.030;11.598;2023-05-23T14:38:07;18.40;99.90
16513;DHT22;8369;48.030;11.598;2023-05-23T14:40:52;18.50;99.90
16513;DHT22;8369;48.030;11.598;2023-05-23T14:43:19;18.60;99.90
16513;DHT22;8369;48.030;11.598;2023-05-23T14:45:45;18.70;99.90
16513;DHT22;8369;48.030;11.598;2023-05-23T14:48:11;18.80;99.90
16513;DHT22;8369;48.030;11.598;2023-05-23T14:50:37;19.00;99.90
16513;DHT22;8369;48.030;11.598;2023-05-23T14:53:04;19.10;99.90
16513;DHT22;8369;48.030;11.598;2023-05-23T14:55:29;19.30;99.90
16513;DHT22;8369;48.030;11.598;2023-05-23T14:57:56;19.40;99.90
16513;DHT22;8369;48.030;11.598;2023-05-23T15:00:22;19.40;99.90
16513;DHT22;8369;48.030;11.598;2023-05-23T15:02:49;19.50;99.90
16513;DHT22;8369;48.030;11.598;2023-05-23T15:05:15;19.50;99.90
16513;DHT22;8369;48.030;11.598;2023-05-23T15:07:43;19.50;99.90
16513;DHT22;8369;48.030;11.598;2023-05-23T15:10:10;19.50;99.90
16513;DHT22;8369;48.030;11.598;2023-05-23T15:12:35;19.50;99.90
16513;DHT22;8369;48.030;11.598;2023-05-23T15:15:02;19.50;99.90
16513;DHT22;8369;48.030;11.598;2023-05-23T15:17:29;19.50;99.90
16513;DHT22;8369;48.030;11.598;2023-05-23T15:19:56;19.40;99.90
16513;DHT22;8369;48.030;11.598;2023-05-23T15:22:22;19.30;99.90
16513;DHT22;8369;48.030;11.598;2023-05-23T15:24:48;19.30;99.90
16513;DHT22;8369;48.030;11.598;2023-05-23T15:27:14;19.20;99.90
16513;DHT22;8369;48.030;11.598;2023-05-23T15:29:40;19.10;99.90
16513;DHT22;8369;48.030;11.598;2023-05-23T15:32:07;19.10;99.90
16513;DHT22;8369;48.030;11.598;2023-05-23T15:34:33;19.00;99.90
16513;DHT22;8369;48.030;11.598;2023-05-23T15:36:59;18.90;99.90
16513;DHT22;8369;48.030;11.598;2023-05-23T15:39:26;18.90;99.90
16513;DHT22;8369;48.030;11.598;2023-05-23T15:41:52;18.90;99.90
16513;DHT22;8369;48.030;11.598;2023-05-23T15:44:18;18.80;99.90
16513;DHT22;8369;48.030;11.598;2023-05-23T15:46:47;18.70;99.90